createdAt,value
2023-03-22T00:00:13.242Z,96494.44
2023-03-22T00:02:14.768Z,96494.81
2023-03-22T00:04:16.304Z,96492.53
2023-03-22T00:06:18.585Z,96494.41
2023-03-22T00:08:20.336Z,96489.81
2023-03-22T00:10:21.948Z,96493.66
2023-03-22T00:12:23.552Z,96492.13
2023-03-22T00:14:25.608Z,96493.66
2023-03-22T00:16:27.242Z,96495.56
2023-03-22T00:18:29.561Z,96487.50
2023-03-22T00:20:31.365Z,96484.00
2023-03-22T00:22:33.174Z,96483.63
2023-03-22T00:24:34.685Z,96480.94
2023-03-22T00:26:36.226Z,96464.09
2023-03-22T00:28:38.706Z,96467.94
2023-03-22T00:30:40.776Z,96470.22
2023-03-22T00:32:42.449Z,96474.03
2023-03-22T00:34:44.010Z,96465.59
2023-03-22T00:36:45.481Z,96462.56
2023-03-22T00:38:47.124Z,96461.75
2023-03-22T00:40:48.675Z,96457.13
2023-03-22T00:42:51.560Z,96453.22
2023-03-22T00:44:53.070Z,96453.63
2023-03-22T00:46:54.563Z,96459.44
2023-03-22T00:48:56.459Z,96460.91
2023-03-22T00:50:58.325Z,96455.56
2023-03-22T00:53:00.363Z,96450.19
2023-03-22T00:55:02.021Z,96452.53
2023-03-22T00:57:03.782Z,96444.81
2023-03-22T00:59:05.973Z,96445.69
2023-03-22T01:01:07.701Z,96438.34
2023-03-22T01:03:09.767Z,96433.31
2023-03-22T01:05:15.794Z,96428.72
2023-03-22T01:07:18.055Z,96430.25
2023-03-22T01:09:23.841Z,96442.06
2023-03-22T01:11:26.350Z,96435.16
2023-03-22T01:13:28.836Z,96435.91
2023-03-22T01:15:30.501Z,96434.75
2023-03-22T01:17:32.475Z,96430.50
2023-03-22T01:19:36.511Z,96426.28
2023-03-22T01:21:38.507Z,96425.91
2023-03-22T01:23:40.600Z,96414.78
2023-03-22T01:25:43.207Z,96422.81
2023-03-22T01:27:44.814Z,96420.16
2023-03-22T01:29:46.417Z,96422.13
2023-03-22T01:31:47.952Z,96420.56
2023-03-22T01:33:49.476Z,96413.28
2023-03-22T01:35:51.484Z,96414.72
2023-03-22T01:37:53.490Z,96408.63
2023-03-22T01:39:55.773Z,96413.69
2023-03-22T01:41:57.583Z,96414.06
2023-03-22T01:44:29.639Z,96413.91
2023-03-22T01:46:32.936Z,96405.81
2023-03-22T01:48:41.777Z,96404.34
2023-03-22T01:50:49.520Z,96414.78
2023-03-22T01:52:52.965Z,96403.69
2023-03-22T01:55:06.604Z,96402.28
2023-03-22T01:57:22.818Z,96407.19
2023-03-22T01:59:25.164Z,96400.22
2023-03-22T02:01:39.724Z,96415.13
2023-03-22T02:04:07.161Z,96403.59
2023-03-22T02:06:08.973Z,96403.22
2023-03-22T02:08:10.614Z,96396.28
2023-03-22T02:10:28.567Z,96401.16
2023-03-22T02:12:51.828Z,96387.38
2023-03-22T02:15:28.125Z,96389.25
2023-03-22T02:17:42.102Z,96392.03
2023-03-22T02:20:10.670Z,96385.53
2023-03-22T02:22:49.924Z,96387.75
2023-03-22T02:25:28.951Z,96388.47
2023-03-22T02:28:09.506Z,96381.97
2023-03-22T02:30:32.627Z,96382.38
2023-03-22T02:32:52.504Z,96371.63
2023-03-22T02:35:18.506Z,96375.47
2023-03-22T02:37:22.770Z,96377.38
2023-03-22T02:39:43.043Z,96377.00
2023-03-22T02:42:12.623Z,96370.94
2023-03-22T02:44:30.661Z,96371.72
2023-03-22T02:46:45.881Z,96369.03
2023-03-22T02:48:53.219Z,96385.66
2023-03-22T02:51:00.686Z,96385.25
2023-03-22T02:53:14.568Z,96371.09
2023-03-22T02:55:26.408Z,96377.25
2023-03-22T02:57:47.791Z,96381.13
2023-03-22T02:59:51.480Z,96380.09
2023-03-22T03:01:57.450Z,96382.81
2023-03-22T03:04:04.851Z,96386.63
2023-03-22T03:06:18.020Z,96382.00
2023-03-22T03:08:20.900Z,96370.00
2023-03-22T03:10:23.710Z,96376.41
2023-03-22T03:12:27.044Z,96375.66
2023-03-22T03:14:32.097Z,96374.19
2023-03-22T03:16:35.022Z,96367.31
2023-03-22T03:18:40.749Z,96381.81
2023-03-22T03:20:46.440Z,96378.06
2023-03-22T03:23:08.972Z,96386.09
2023-03-22T03:25:27.394Z,96381.81
2023-03-22T03:27:38.344Z,96388.00
2023-03-22T03:30:00.719Z,96387.94
2023-03-22T03:32:41.951Z,96384.09
2023-03-22T03:34:52.890Z,96382.13
2023-03-22T03:37:02.761Z,96384.06
2023-03-22T03:39:09.653Z,96381.69
2023-03-22T03:41:17.882Z,96378.59
2023-03-22T03:43:20.809Z,96381.88
2023-03-22T03:45:23.265Z,96374.13
2023-03-22T03:47:28.290Z,96377.50
2023-03-22T03:49:30.143Z,96372.47
2023-03-22T03:51:33.186Z,96358.56
2023-03-22T03:53:34.680Z,96356.53
2023-03-22T03:55:37.692Z,96364.06
2023-03-22T03:57:39.494Z,96361.31
2023-03-22T03:59:41.244Z,96360.84
2023-03-22T04:01:52.630Z,96359.31
2023-03-22T04:03:59.774Z,96359.16
2023-03-22T04:06:09.263Z,96355.63
2023-03-22T04:08:13.438Z,96351.34
2023-03-22T04:10:15.014Z,96353.72
2023-03-22T04:12:16.568Z,96348.81
2023-03-22T04:14:27.449Z,96346.91
2023-03-22T04:16:31.697Z,96339.91
2023-03-22T04:18:33.472Z,96331.88
2023-03-22T04:20:41.522Z,96331.94
2023-03-22T04:22:44.783Z,96338.75
2023-03-22T04:24:50.025Z,96338.69
2023-03-22T04:26:53.635Z,96332.66
2023-03-22T04:28:59.216Z,96333.50
2023-03-22T04:31:03.227Z,96321.25
2023-03-22T04:33:26.224Z,96325.22
2023-03-22T04:35:46.635Z,96322.16
2023-03-22T04:37:48.861Z,96316.31
2023-03-22T04:39:54.141Z,96328.97
2023-03-22T04:42:19.927Z,96328.97
2023-03-22T04:44:23.693Z,96319.84
2023-03-22T04:46:26.421Z,96321.44
2023-03-22T04:48:38.397Z,96316.47
2023-03-22T04:50:41.259Z,96315.25
2023-03-22T04:52:43.120Z,96315.16
2023-03-22T04:54:44.588Z,96318.28
2023-03-22T04:56:47.342Z,96311.41
2023-03-22T04:58:50.631Z,96314.09
2023-03-22T05:00:53.770Z,96311.41
2023-03-22T05:02:57.408Z,96307.53
2023-03-22T05:05:18.948Z,96313.28
2023-03-22T05:07:22.358Z,96305.22
2023-03-22T05:09:28.480Z,96312.09
2023-03-22T05:11:30.443Z,96313.22
2023-03-22T05:13:54.249Z,96310.22
2023-03-22T05:15:56.286Z,96311.06
2023-03-22T05:18:04.910Z,96310.63
2023-03-22T05:20:09.834Z,96310.31
2023-03-22T05:22:13.986Z,96317.94
2023-03-22T05:24:20.131Z,96317.19
2023-03-22T05:26:26.214Z,96317.09
2023-03-22T05:28:28.743Z,96320.19
2023-03-22T05:30:54.764Z,96326.66
2023-03-22T05:33:05.781Z,96321.28
2023-03-22T05:35:13.107Z,96314.72
2023-03-22T05:37:21.008Z,96313.19
2023-03-22T05:39:26.450Z,96312.47
2023-03-22T05:41:28.044Z,96320.50
2023-03-22T05:43:29.649Z,96320.94
2023-03-22T05:45:32.481Z,96324.84
2023-03-22T05:47:44.556Z,96333.63
2023-03-22T05:49:48.789Z,96330.22
2023-03-22T05:51:50.490Z,96332.91
2023-03-22T05:53:53.514Z,96328.41
2023-03-22T05:56:02.712Z,96339.19
2023-03-22T05:58:08.410Z,96340.28
2023-03-22T06:00:16.215Z,96336.81
2023-03-22T06:02:38.347Z,96345.19
2023-03-22T06:04:41.579Z,96336.31
2023-03-22T06:06:46.794Z,96339.31
2023-03-22T06:09:16.033Z,96340.63
2023-03-22T06:11:19.258Z,96343.13
2023-03-22T06:13:21.879Z,96349.00
2023-03-22T06:15:23.998Z,96342.78
2023-03-22T06:17:38.756Z,96334.91
2023-03-22T06:19:43.139Z,96343.69
2023-03-22T06:21:46.262Z,96342.63
2023-03-22T06:23:49.789Z,96342.53
2023-03-22T06:25:51.567Z,96351.91
2023-03-22T06:27:53.129Z,96343.00
2023-03-22T06:29:55.754Z,96347.97
2023-03-22T06:32:00.611Z,96344.59
2023-03-22T06:34:02.711Z,96350.56
2023-03-22T06:36:10.862Z,96350.25
2023-03-22T06:38:25.202Z,96344.88
2023-03-22T06:40:27.839Z,96346.69
2023-03-22T06:42:30.900Z,96343.03
2023-03-22T06:44:45.091Z,96352.75
2023-03-22T06:46:58.797Z,96339.91
2023-03-22T06:49:12.039Z,96352.50
2023-03-22T06:51:13.721Z,96343.00
2023-03-22T06:53:15.263Z,96338.78
2023-03-22T06:55:18.447Z,96341.47
2023-03-22T06:57:20.112Z,96339.41
2023-03-22T06:59:21.699Z,96345.28
2023-03-22T07:01:24.498Z,96334.69
2023-03-22T07:03:26.119Z,96340.47
2023-03-22T07:05:39.110Z,96332.66
2023-03-22T07:07:40.670Z,96345.47
2023-03-22T07:09:42.278Z,96347.81
2023-03-22T07:11:43.877Z,96351.78
2023-03-22T07:13:45.504Z,96355.59
2023-03-22T07:16:02.199Z,96357.81
2023-03-22T07:18:10.044Z,96355.59
2023-03-22T07:20:11.829Z,96362.09
2023-03-22T07:22:13.361Z,96352.38
2023-03-22T07:24:15.230Z,96357.00
2023-03-22T07:26:17.069Z,96350.19
2023-03-22T07:28:22.286Z,96365.00
2023-03-22T07:30:23.825Z,96356.53
2023-03-22T07:32:26.078Z,96361.41
2023-03-22T07:34:37.159Z,96354.00
2023-03-22T07:36:42.999Z,96356.09
2023-03-22T07:38:46.361Z,96349.34
2023-03-22T07:40:54.611Z,96356.84
2023-03-22T07:42:59.333Z,96349.69
2023-03-22T07:45:20.676Z,96356.03
2023-03-22T07:47:42.898Z,96354.91
2023-03-22T07:50:08.084Z,96358.44
2023-03-22T07:52:11.304Z,96362.28
2023-03-22T07:54:22.673Z,96360.25
2023-03-22T07:56:32.399Z,96354.09
2023-03-22T07:58:34.629Z,96360.44
2023-03-22T08:00:36.264Z,96362.63
2023-03-22T08:03:13.241Z,96352.53
2023-03-22T08:05:30.276Z,96362.91
2023-03-22T08:07:36.173Z,96359.97
2023-03-22T08:09:38.461Z,96349.44
2023-03-22T08:11:40.578Z,96348.34
2023-03-22T08:13:42.239Z,96349.25
2023-03-22T08:15:45.688Z,96353.59
2023-03-22T08:17:49.692Z,96357.72
2023-03-22T08:19:59.491Z,96355.34
2023-03-22T08:22:17.490Z,96356.28
2023-03-22T08:24:52.294Z,96372.00
2023-03-22T08:27:06.695Z,96354.78
2023-03-22T08:29:19.774Z,96356.09
2023-03-22T08:31:23.310Z,96371.81
2023-03-22T08:33:25.315Z,96353.34
2023-03-22T08:35:27.531Z,96353.41
2023-03-22T08:37:29.062Z,96356.06
2023-03-22T08:39:30.899Z,96353.97
2023-03-22T08:41:49.387Z,96357.41
2023-03-22T08:43:52.061Z,96359.69
2023-03-22T08:45:53.934Z,96368.25
2023-03-22T08:47:57.341Z,96356.09
2023-03-22T08:50:00.146Z,96353.78
2023-03-22T08:52:13.851Z,96353.69
2023-03-22T08:54:38.254Z,96357.09
2023-03-22T08:56:39.913Z,96359.59
2023-03-22T08:58:53.443Z,96356.25
2023-03-22T09:01:12.110Z,96355.50
2023-03-22T09:03:19.283Z,96353.84
2023-03-22T09:05:20.901Z,96347.28
2023-03-22T09:07:22.550Z,96349.41
2023-03-22T09:09:33.371Z,96348.88
2023-03-22T09:11:37.185Z,96360.59
2023-03-22T09:13:39.035Z,96351.34
2023-03-22T09:15:40.907Z,96348.66
2023-03-22T09:17:50.859Z,96353.75
2023-03-22T09:20:02.731Z,96345.84
2023-03-22T09:22:11.559Z,96346.06
2023-03-22T09:24:20.507Z,96347.38
2023-03-22T09:26:27.017Z,96339.56
2023-03-22T09:28:30.328Z,96339.22
2023-03-22T09:30:34.009Z,96341.63
2023-03-22T09:32:35.830Z,96345.69
2023-03-22T09:34:39.022Z,96340.22
2023-03-22T09:36:41.099Z,96341.94
2023-03-22T09:38:42.721Z,96340.50
2023-03-22T09:41:00.745Z,96344.00
2023-03-22T09:43:09.000Z,96345.63
2023-03-22T09:45:38.530Z,96343.34
2023-03-22T09:47:46.568Z,96342.81
2023-03-22T09:49:55.762Z,96339.72
2023-03-22T09:51:58.583Z,96339.19
2023-03-22T09:54:00.299Z,96323.50
2023-03-22T09:56:24.786Z,96337.34
2023-03-22T09:58:50.245Z,96322.41
2023-03-22T10:01:02.806Z,96328.16
2023-03-22T10:03:39.214Z,96327.28
2023-03-22T10:05:49.890Z,96326.97
2023-03-22T10:07:59.334Z,96323.94
2023-03-22T10:10:12.921Z,96326.41
2023-03-22T10:12:25.438Z,96311.91
2023-03-22T10:14:33.348Z,96338.75
2023-03-22T10:16:35.598Z,96317.34
2023-03-22T10:18:40.674Z,96320.50
2023-03-22T10:20:48.486Z,96323.53
2023-03-22T10:22:53.325Z,96318.25
2023-03-22T10:24:56.091Z,96303.13
2023-03-22T10:26:57.614Z,96309.31
2023-03-22T10:29:06.901Z,96298.06
2023-03-22T10:31:17.348Z,96304.44
2023-03-22T10:33:35.166Z,96298.16
2023-03-22T10:35:37.888Z,96290.28
2023-03-22T10:37:40.900Z,96291.41
2023-03-22T10:39:49.811Z,96290.59
2023-03-22T10:41:56.376Z,96293.44
2023-03-22T10:44:02.589Z,96301.84
2023-03-22T10:46:07.615Z,96295.66
2023-03-22T10:48:27.102Z,96310.44
2023-03-22T10:50:44.208Z,96288.06
2023-03-22T10:52:52.559Z,96302.44
2023-03-22T10:54:54.119Z,96301.56
2023-03-22T10:56:56.426Z,96300.47
2023-03-22T10:58:58.085Z,96300.03
2023-03-22T11:01:05.903Z,96290.00
2023-03-22T11:03:07.550Z,96293.72
2023-03-22T11:05:23.608Z,96300.09
2023-03-22T11:07:42.998Z,96296.66
2023-03-22T11:09:44.541Z,96306.69
2023-03-22T11:11:55.314Z,96295.72
2023-03-22T11:14:06.498Z,96295.25
2023-03-22T11:16:08.389Z,96296.34
2023-03-22T11:18:16.082Z,96294.59
2023-03-22T11:20:19.562Z,96287.19
2023-03-22T11:22:38.907Z,96283.50
2023-03-22T11:24:40.774Z,96290.34
2023-03-22T11:26:44.802Z,96284.94
2023-03-22T11:28:49.836Z,96291.59
2023-03-22T11:31:02.622Z,96281.09
2023-03-22T11:33:17.852Z,96286.06
2023-03-22T11:35:28.243Z,96282.72
2023-03-22T11:37:29.744Z,96265.84
2023-03-22T11:39:31.458Z,96271.31
2023-03-22T11:41:37.977Z,96276.50
2023-03-22T11:43:44.001Z,96268.34
2023-03-22T11:45:48.074Z,96270.91
2023-03-22T11:47:49.875Z,96269.38
2023-03-22T11:49:54.593Z,96272.72
2023-03-22T11:51:56.691Z,96273.31
2023-03-22T11:54:16.676Z,96257.09
2023-03-22T11:56:25.756Z,96261.94
2023-03-22T11:58:29.188Z,96268.34
2023-03-22T12:00:34.756Z,96267.97
2023-03-22T12:03:00.370Z,96269.06
2023-03-22T12:05:15.411Z,96261.53
2023-03-22T12:07:21.437Z,96256.31
2023-03-22T12:09:23.027Z,96255.31
2023-03-22T12:11:41.204Z,96260.75
2023-03-22T12:13:51.352Z,96249.09
2023-03-22T12:15:57.465Z,96242.09
2023-03-22T12:18:10.688Z,96244.25
2023-03-22T12:20:19.316Z,96247.44
2023-03-22T12:22:31.110Z,96239.69
2023-03-22T12:24:32.836Z,96231.75
2023-03-22T12:26:35.532Z,96235.41
2023-03-22T12:28:56.243Z,96234.81
2023-03-22T12:30:59.226Z,96228.59
2023-03-22T12:33:06.415Z,96236.75
2023-03-22T12:35:19.685Z,96230.94
2023-03-22T12:37:27.328Z,96231.59
2023-03-22T12:39:35.440Z,96230.09
2023-03-22T12:41:45.707Z,96214.59
2023-03-22T12:43:54.126Z,96219.25
2023-03-22T12:46:00.256Z,96239.88
2023-03-22T12:48:31.114Z,96213.25
2023-03-22T12:50:42.262Z,96226.94
2023-03-22T12:52:47.675Z,96222.06
2023-03-22T12:54:51.083Z,96209.69
2023-03-22T12:56:53.865Z,96217.81
2023-03-22T12:59:01.418Z,96212.03
2023-03-22T13:01:25.109Z,96225.97
2023-03-22T13:03:36.761Z,96220.00
2023-03-22T13:05:41.116Z,96215.50
2023-03-22T13:07:45.809Z,96202.94
2023-03-22T13:09:49.415Z,96211.00
2023-03-22T13:12:19.029Z,96216.09
2023-03-22T13:14:57.998Z,96208.09
2023-03-22T13:17:00.917Z,96202.16
2023-03-22T13:19:17.272Z,96210.44
2023-03-22T13:21:27.341Z,96217.56
2023-03-22T13:23:28.895Z,96198.66
2023-03-22T13:25:36.479Z,96198.09
2023-03-22T13:27:44.592Z,96187.91
2023-03-22T13:29:53.821Z,96188.50
2023-03-22T13:31:58.507Z,96189.34
2023-03-22T13:34:02.610Z,96186.09
2023-03-22T13:36:25.058Z,96183.63
2023-03-22T13:38:34.815Z,96165.34
2023-03-22T13:40:46.708Z,96176.28
2023-03-22T13:42:48.278Z,96172.53
2023-03-22T13:44:58.437Z,96171.16
2023-03-22T13:47:01.476Z,96178.13
2023-03-22T13:49:03.021Z,96170.09
2023-03-22T13:51:12.112Z,96170.28
2023-03-22T13:53:21.717Z,96168.53
2023-03-22T13:56:04.667Z,96179.28
2023-03-22T13:58:11.356Z,96166.50
2023-03-22T14:00:32.104Z,96169.81
2023-03-22T14:02:38.148Z,96160.31
2023-03-22T14:04:47.443Z,96167.03
2023-03-22T14:06:54.928Z,96161.72
2023-03-22T14:09:13.404Z,96155.72
2023-03-22T14:11:27.185Z,96152.63
2023-03-22T14:14:07.606Z,96146.34
2023-03-22T14:16:15.655Z,96145.19
2023-03-22T14:18:28.125Z,96144.00
2023-03-22T14:20:36.035Z,96140.56
